createdAt,value
2018-04-24T00:01:39.490Z,94.67
2018-04-24T00:04:07.605Z,94.67
2018-04-24T00:06:35.741Z,94.73
2018-04-24T00:09:03.871Z,94.80
2018-04-24T00:11:32.057Z,94.85
2018-04-24T00:14:00.181Z,95.03
2018-04-24T00:16:28.297Z,95.19
2018-04-24T00:18:56.437Z,95.23
2018-04-24T00:21:24.589Z,95.42
2018-04-24T00:23:52.722Z,95.45
2018-04-24T00:26:20.850Z,95.38
2018-04-24T00:28:48.975Z,95.28
2018-04-24T00:31:17.161Z,95.23
2018-04-24T00:33:45.305Z,95.37
2018-04-24T00:36:13.421Z,95.37
2018-04-24T00:38:41.584Z,95.48
2018-04-24T00:41:10.176Z,95.53
2018-04-24T00:43:38.740Z,95.52
2018-04-24T00:46:06.872Z,95.53
2018-04-24T00:48:34.991Z,95.58
2018-04-24T00:51:03.109Z,95.36
2018-04-24T00:53:43.223Z,95.16
2018-04-24T00:56:11.344Z,95.10
2018-04-24T00:58:39.465Z,94.99
2018-04-24T01:01:07.599Z,95.09
2018-04-24T01:03:35.744Z,94.94
2018-04-24T01:06:03.853Z,94.62
2018-04-24T01:08:31.994Z,94.22
2018-04-24T01:11:00.120Z,94.14
2018-04-24T01:13:28.344Z,94.08
2018-04-24T01:15:56.487Z,94.07
2018-04-24T01:18:24.615Z,94.25
2018-04-24T01:20:52.738Z,94.33
2018-04-24T01:23:20.874Z,94.29
2018-04-24T01:25:49.071Z,94.24
2018-04-24T01:28:17.190Z,93.96
2018-04-24T01:30:45.331Z,93.84
2018-04-24T01:33:13.447Z,93.74
2018-04-24T01:35:41.600Z,93.70
2018-04-24T01:38:09.722Z,93.98
2018-04-24T01:40:37.848Z,94.21
2018-04-24T01:43:06.009Z,94.57
2018-04-24T01:45:34.226Z,94.58
2018-04-24T01:48:02.347Z,94.85
2018-04-24T01:50:30.479Z,95.11
2018-04-24T01:52:58.647Z,95.21
2018-04-24T01:55:26.777Z,94.93
2018-04-24T01:57:54.895Z,94.78
2018-04-24T02:00:23.016Z,95.20
2018-04-24T02:02:51.350Z,95.40
2018-04-24T02:05:19.474Z,95.23
2018-04-24T02:07:47.605Z,95.20
2018-04-24T02:10:15.730Z,94.80
2018-04-24T02:12:43.874Z,95.05
2018-04-24T02:15:12.008Z,94.97
2018-04-24T02:17:40.131Z,94.32
2018-04-24T02:20:08.291Z,94.39
2018-04-24T02:22:36.526Z,94.35
2018-04-24T02:25:04.668Z,94.71
2018-04-24T02:27:32.745Z,94.69
2018-04-24T02:30:01.077Z,94.75
2018-04-24T02:32:29.182Z,94.59
2018-04-24T02:34:57.336Z,94.90
2018-04-24T02:37:25.477Z,95.17
2018-04-24T02:39:53.618Z,95.28
2018-04-24T02:42:21.757Z,95.60
2018-04-24T02:44:49.954Z,95.81
2018-04-24T02:47:18.071Z,95.49
2018-04-24T02:49:46.224Z,95.86
2018-04-24T02:52:14.361Z,95.85
2018-04-24T02:54:42.525Z,96.14
2018-04-24T02:57:10.683Z,96.24
2018-04-24T02:59:38.840Z,96.31
2018-04-24T03:02:06.965Z,96.42
2018-04-24T03:04:38.844Z,96.78
2018-04-24T03:07:07.082Z,97.21
2018-04-24T03:09:35.207Z,97.28
2018-04-24T03:12:03.379Z,97.40
2018-04-24T03:14:31.527Z,97.24
2018-04-24T03:16:59.643Z,97.36
2018-04-24T03:19:27.805Z,97.54
2018-04-24T03:21:55.948Z,97.61
2018-04-24T03:24:24.087Z,97.72
2018-04-24T03:26:52.250Z,97.96
2018-04-24T03:29:20.406Z,98.05
2018-04-24T03:31:48.575Z,98.16
2018-04-24T03:34:16.727Z,98.38
2018-04-24T03:36:44.860Z,98.53
2018-04-24T03:39:13.026Z,98.71
2018-04-24T03:41:41.190Z,98.79
2018-04-24T03:44:09.322Z,98.70
2018-04-24T03:46:37.456Z,98.62
2018-04-24T03:49:05.637Z,98.78
2018-04-24T03:51:33.820Z,98.75
2018-04-24T03:54:01.942Z,98.79
2018-04-24T03:56:30.078Z,99.11
2018-04-24T03:58:58.259Z,99.29
2018-04-24T04:01:26.424Z,99.42
2018-04-24T04:03:54.568Z,99.55
2018-04-24T04:06:22.691Z,99.72
2018-04-24T04:08:50.838Z,99.66
2018-04-24T04:11:18.985Z,99.65
2018-04-24T04:13:47.123Z,99.59
2018-04-24T04:16:15.590Z,99.22
2018-04-24T04:18:55.475Z,98.73
2018-04-24T04:24:36.449Z,98.45
2018-04-24T04:27:04.586Z,98.59
2018-04-24T04:29:32.756Z,98.27
2018-04-24T04:32:00.972Z,97.81
2018-04-24T04:34:29.121Z,97.64
2018-04-24T04:36:57.265Z,97.52
2018-04-24T04:39:25.408Z,97.34
2018-04-24T04:41:53.577Z,97.35
2018-04-24T04:44:21.702Z,97.36
2018-04-24T04:46:49.870Z,97.11
2018-04-24T04:49:17.998Z,97.39
2018-04-24T04:51:46.170Z,97.24
2018-04-24T04:54:14.327Z,97.09
2018-04-24T04:56:42.479Z,96.97
2018-04-24T04:59:10.614Z,96.60
2018-04-24T05:01:38.755Z,96.53
2018-04-24T05:04:06.888Z,96.37
2018-04-24T05:06:35.029Z,96.22
2018-04-24T05:09:03.182Z,96.13
2018-04-24T05:11:31.335Z,96.04
2018-04-24T05:13:59.470Z,95.98
2018-04-24T05:16:27.599Z,95.65
2018-04-24T05:18:55.725Z,95.52
2018-04-24T05:21:24.052Z,95.34
2018-04-24T05:23:52.225Z,94.98
2018-04-24T05:26:20.422Z,94.77
2018-04-24T05:28:48.602Z,94.46
2018-04-24T05:31:16.739Z,94.60
2018-04-24T05:33:44.883Z,94.24
2018-04-24T05:36:13.021Z,94.12
2018-04-24T05:38:41.164Z,93.64
2018-04-24T05:41:10.187Z,93.52
2018-04-24T05:43:38.311Z,93.87
2018-04-24T05:46:06.465Z,93.61
2018-04-24T05:48:34.638Z,93.42
2018-04-24T05:51:02.814Z,93.38
2018-04-24T05:53:30.957Z,93.24
2018-04-24T05:55:59.072Z,92.03
2018-04-24T05:58:27.264Z,90.95
2018-04-24T06:00:55.398Z,89.63
2018-04-24T06:03:23.538Z,89.67
2018-04-24T06:05:51.657Z,89.09
2018-04-24T06:08:19.999Z,89.15
2018-04-24T06:10:48.047Z,89.30
2018-04-24T06:13:16.205Z,86.83
2018-04-24T06:15:44.325Z,87.10
2018-04-24T06:18:12.450Z,87.71
2018-04-24T06:20:40.606Z,88.06
2018-04-24T06:23:08.723Z,88.23
2018-04-24T06:25:36.850Z,88.98
2018-04-24T06:28:04.982Z,89.38
2018-04-24T06:30:33.111Z,89.69
2018-04-24T06:33:01.335Z,88.55
2018-04-24T06:35:29.505Z,89.59
2018-04-24T06:37:57.627Z,88.60
2018-04-24T06:40:25.757Z,89.31
2018-04-24T06:42:53.880Z,89.68
2018-04-24T06:45:22.030Z,89.73
2018-04-24T06:47:50.207Z,89.55
2018-04-24T06:50:18.276Z,89.83
2018-04-24T06:52:46.439Z,89.90
2018-04-24T06:55:14.563Z,89.92
2018-04-24T06:57:42.769Z,89.82
2018-04-24T07:00:10.927Z,90.32
2018-04-24T07:02:39.048Z,90.46
2018-04-24T07:05:07.212Z,90.39
2018-04-24T07:07:35.361Z,90.16
2018-04-24T07:10:03.518Z,90.59
2018-04-24T07:12:31.654Z,90.52
2018-04-24T07:14:59.803Z,90.12
2018-04-24T07:17:27.946Z,89.63
2018-04-24T07:19:56.074Z,90.49
2018-04-24T07:22:24.206Z,89.39
2018-04-24T07:24:52.371Z,88.63
2018-04-24T07:27:20.485Z,87.12
2018-04-24T07:29:48.643Z,87.67
2018-04-24T07:32:16.759Z,88.46
2018-04-24T07:34:45.144Z,89.15
2018-04-24T07:37:13.288Z,89.42
2018-04-24T07:39:41.405Z,89.30
2018-04-24T07:42:09.531Z,89.78
2018-04-24T07:44:37.672Z,89.11
2018-04-24T07:47:05.809Z,89.25
2018-04-24T07:49:33.935Z,90.16
2018-04-24T07:52:02.061Z,89.73
2018-04-24T07:54:30.188Z,89.73
2018-04-24T07:56:58.305Z,89.22
2018-04-24T07:59:26.581Z,88.76
2018-04-24T08:01:54.555Z,89.16
2018-04-24T08:04:22.686Z,88.94
2018-04-24T08:06:50.815Z,89.67
2018-04-24T08:09:18.925Z,89.58
2018-04-24T08:11:47.047Z,88.93
2018-04-24T08:14:15.215Z,88.79
2018-04-24T08:16:43.328Z,88.60
2018-04-24T08:19:11.461Z,89.14
2018-04-24T08:21:39.582Z,88.80
2018-04-24T08:24:07.729Z,88.03
2018-04-24T08:26:35.842Z,86.78
2018-04-24T08:29:04.028Z,87.16
2018-04-24T08:31:32.160Z,85.64
2018-04-24T08:34:00.301Z,86.48
2018-04-24T08:36:28.416Z,85.59
2018-04-24T08:38:56.566Z,85.67
2018-04-24T08:41:24.681Z,85.74
2018-04-24T08:43:52.825Z,85.47
2018-04-24T08:46:20.942Z,84.38
2018-04-24T08:48:49.094Z,83.85
2018-04-24T08:51:17.517Z,83.84
2018-04-24T08:53:45.901Z,83.51
2018-04-24T08:56:14.066Z,83.77
2018-04-24T08:58:42.245Z,83.83
2018-04-24T09:01:10.383Z,84.29
2018-04-24T09:03:38.519Z,83.45
2018-04-24T09:06:06.655Z,82.26
2018-04-24T09:08:34.813Z,80.85
2018-04-24T09:11:02.925Z,80.38
2018-04-24T09:13:31.114Z,80.47
2018-04-24T09:15:59.286Z,78.66
2018-04-24T09:18:27.411Z,78.82
2018-04-24T09:20:55.605Z,78.01
2018-04-24T09:23:23.760Z,79.11
2018-04-24T09:25:51.906Z,79.64
2018-04-24T09:28:20.033Z,80.04
2018-04-24T09:30:48.177Z,78.27
2018-04-24T09:33:16.297Z,78.17
2018-04-24T09:35:44.430Z,75.42
2018-04-24T09:38:12.594Z,75.09
2018-04-24T09:40:40.730Z,74.75
2018-04-24T09:43:09.917Z,74.24
2018-04-24T09:45:38.046Z,73.68
2018-04-24T09:48:06.186Z,73.19
2018-04-24T09:50:34.334Z,73.39
2018-04-24T09:53:02.465Z,73.69
2018-04-24T09:55:30.622Z,70.96
2018-04-24T09:57:58.766Z,70.24
2018-04-24T10:00:32.449Z,69.57
2018-04-24T10:03:00.626Z,69.93
2018-04-24T10:05:28.765Z,68.21
2018-04-24T10:07:56.932Z,66.29
2018-04-24T10:10:25.066Z,68.59
2018-04-24T10:12:53.220Z,68.83
2018-04-24T10:15:21.415Z,69.39
2018-04-24T10:17:49.559Z,69.12
2018-04-24T10:20:17.697Z,69.35
2018-04-24T10:22:45.832Z,69.78
2018-04-24T10:25:15.078Z,71.62
2018-04-24T10:27:43.208Z,69.01
2018-04-24T10:30:11.348Z,68.63
2018-04-24T10:32:39.470Z,66.92
2018-04-24T10:35:07.636Z,67.90
2018-04-24T10:37:35.784Z,67.07
2018-04-24T10:40:03.928Z,65.45
2018-04-24T10:42:32.061Z,65.94
2018-04-24T10:45:00.207Z,65.82
2018-04-24T10:47:28.655Z,65.10
2018-04-24T10:49:56.786Z,64.84
2018-04-24T10:52:24.919Z,61.29
2018-04-24T10:54:53.049Z,59.80
2018-04-24T10:57:21.190Z,60.55
2018-04-24T10:59:49.332Z,62.06
2018-04-24T11:02:17.522Z,63.01
2018-04-24T11:04:45.642Z,59.82
2018-04-24T11:07:13.782Z,58.98
2018-04-24T11:09:41.921Z,60.26
2018-04-24T11:12:10.048Z,58.78
2018-04-24T11:14:38.207Z,57.43
2018-04-24T11:17:07.462Z,60.04
2018-04-24T11:19:35.559Z,58.57
2018-04-24T11:22:03.707Z,55.93
2018-04-24T11:24:31.850Z,55.97
2018-04-24T11:26:59.984Z,56.33
2018-04-24T11:29:28.148Z,54.78
2018-04-24T11:31:56.301Z,55.61
2018-04-24T11:34:24.487Z,58.26
2018-04-24T11:36:52.592Z,55.58
2018-04-24T11:39:20.737Z,56.22
2018-04-24T11:41:49.772Z,56.33
2018-04-24T11:44:17.905Z,57.07
2018-04-24T11:46:46.039Z,58.58
2018-04-24T11:49:14.165Z,57.61
2018-04-24T11:51:42.327Z,59.30
2018-04-24T11:54:10.507Z,57.84
2018-04-24T11:56:38.635Z,58.42
2018-04-24T11:59:06.769Z,55.54
2018-04-24T12:01:34.930Z,52.73
2018-04-24T12:04:03.036Z,51.10
2018-04-24T12:06:31.168Z,51.92
2018-04-24T12:08:59.315Z,52.34
2018-04-24T12:11:27.435Z,53.02
2018-04-24T12:13:55.574Z,51.80
2018-04-24T12:16:23.715Z,51.79
2018-04-24T12:18:51.858Z,53.42
2018-04-24T12:21:19.978Z,53.65
2018-04-24T12:23:48.122Z,52.95
2018-04-24T12:26:16.284Z,52.34
2018-04-24T12:28:44.654Z,52.23
2018-04-24T12:31:12.775Z,52.39
2018-04-24T12:33:40.981Z,50.85
2018-04-24T12:36:09.196Z,50.00
2018-04-24T12:38:37.383Z,50.73
2018-04-24T12:41:05.676Z,49.57
2018-04-24T12:43:33.900Z,47.31
2018-04-24T12:46:02.277Z,48.54
2018-04-24T12:48:30.595Z,48.06
2018-04-24T12:50:58.767Z,46.96
2018-04-24T12:53:26.906Z,47.86
2018-04-24T12:55:55.039Z,47.01
2018-04-24T12:58:23.165Z,50.14
2018-04-24T13:00:51.292Z,50.17
2018-04-24T13:03:19.449Z,48.13
2018-04-24T13:05:47.583Z,47.46
2018-04-24T13:08:16.448Z,47.38
2018-04-24T13:10:44.554Z,47.13
2018-04-24T13:13:12.685Z,48.92
2018-04-24T13:15:40.851Z,47.12
2018-04-24T13:18:08.976Z,47.54
2018-04-24T13:20:37.113Z,47.08
2018-04-24T13:23:05.262Z,46.40
2018-04-24T13:25:33.478Z,48.61
2018-04-24T13:28:01.750Z,47.79
2018-04-24T13:30:29.904Z,48.10
2018-04-24T13:32:58.034Z,48.88
2018-04-24T13:35:26.176Z,48.78
2018-04-24T13:37:54.553Z,47.96
2018-04-24T13:40:22.701Z,48.71
2018-04-24T13:42:50.939Z,47.04
2018-04-24T13:45:19.119Z,46.24
2018-04-24T13:47:47.264Z,46.70
2018-04-24T13:50:15.534Z,48.39
2018-04-24T13:52:44.180Z,49.49
2018-04-24T13:55:12.707Z,49.15
2018-04-24T13:57:40.872Z,49.07
2018-04-24T14:00:08.991Z,48.58
2018-04-24T14:02:37.151Z,47.40
2018-04-24T14:05:05.358Z,47.50
2018-04-24T14:07:33.469Z,49.25
2018-04-24T14:10:01.610Z,47.17
2018-04-24T14:12:29.753Z,46.24
2018-04-24T14:14:59.513Z,48.00
2018-04-24T14:17:27.628Z,47.87
2018-04-24T14:19:55.746Z,47.62
2018-04-24T14:22:23.887Z,47.69
2018-04-24T14:24:52.025Z,46.66
2018-04-24T14:27:20.178Z,46.65
2018-04-24T14:29:48.327Z,46.17
2018-04-24T14:32:16.461Z,47.08
2018-04-24T14:34:44.618Z,46.35
2018-04-24T14:37:12.765Z,46.69
2018-04-24T14:39:40.882Z,45.20
2018-04-24T14:42:09.677Z,46.06
2018-04-24T14:44:37.917Z,45.73
2018-04-24T14:47:06.091Z,46.42
2018-04-24T14:49:34.334Z,46.42
2018-04-24T14:52:02.458Z,46.27
2018-04-24T14:54:30.587Z,47.22
2018-04-24T14:56:58.740Z,46.39
2018-04-24T14:59:26.858Z,45.12
2018-04-24T15:01:55.036Z,46.89
2018-04-24T15:04:23.180Z,46.48
2018-04-24T15:06:51.303Z,46.82
2018-04-24T15:09:19.445Z,47.28
2018-04-24T15:11:47.589Z,46.85
2018-04-24T15:14:15.771Z,46.28
2018-04-24T15:16:43.895Z,46.84
2018-04-24T15:19:12.013Z,46.45
2018-04-24T15:21:40.141Z,46.51
2018-04-24T15:24:09.185Z,47.16
2018-04-24T15:26:37.298Z,48.55
2018-04-24T15:29:05.460Z,47.08
2018-04-24T15:31:33.566Z,45.94
2018-04-24T15:34:01.741Z,46.66
2018-04-24T15:36:29.934Z,47.13
2018-04-24T15:38:58.011Z,46.96
2018-04-24T15:41:26.160Z,46.50
2018-04-24T15:43:54.282Z,47.61
2018-04-24T15:46:22.414Z,46.53
2018-04-24T15:48:50.554Z,47.01
2018-04-24T15:51:18.678Z,47.70
2018-04-24T15:53:46.844Z,47.46
2018-04-24T15:56:14.969Z,47.60
2018-04-24T15:58:43.150Z,48.46
2018-04-24T16:01:11.271Z,49.02
2018-04-24T16:03:39.405Z,49.54
2018-04-24T16:06:07.542Z,50.11
2018-04-24T16:08:35.663Z,50.98
2018-04-24T16:11:04.496Z,50.96
2018-04-24T16:13:32.621Z,51.08
2018-04-24T16:16:00.741Z,50.94
2018-04-24T16:18:28.877Z,51.18
2018-04-24T16:20:57.011Z,51.21
2018-04-24T16:23:25.152Z,51.05
2018-04-24T16:25:53.274Z,50.76
2018-04-24T16:28:21.551Z,50.90
2018-04-24T16:30:49.682Z,51.15
2018-04-24T16:33:17.791Z,50.34
2018-04-24T16:35:46.023Z,51.33
2018-04-24T16:38:14.059Z,51.19
2018-04-24T16:40:42.190Z,50.56
2018-04-24T16:43:10.343Z,51.29
2018-04-24T16:45:38.493Z,50.64
2018-04-24T16:48:06.606Z,50.99
2018-04-24T16:50:34.847Z,51.19
2018-04-24T16:53:02.971Z,51.86
2018-04-24T16:55:31.115Z,51.68
2018-04-24T16:57:59.247Z,51.86
2018-04-24T17:00:27.368Z,51.89
2018-04-24T17:02:55.486Z,53.02
2018-04-24T17:05:23.727Z,52.90
2018-04-24T17:07:51.867Z,53.65
2018-04-24T17:10:20.013Z,53.23
2018-04-24T17:12:48.149Z,53.86
2018-04-24T17:15:16.278Z,53.81
2018-04-24T17:17:44.419Z,54.43
2018-04-24T17:20:12.590Z,54.27
2018-04-24T17:22:40.724Z,55.14
2018-04-24T17:25:08.852Z,55.56
2018-04-24T17:27:37.002Z,56.10
2018-04-24T17:30:05.142Z,57.09
2018-04-24T17:32:33.282Z,57.67
2018-04-24T17:35:01.399Z,57.91
2018-04-24T17:37:29.525Z,58.95
2018-04-24T17:39:57.641Z,59.58
2018-04-24T17:42:25.765Z,60.30
2018-04-24T17:44:53.914Z,60.92
2018-04-24T17:47:22.040Z,62.40
2018-04-24T17:49:50.204Z,62.83
2018-04-24T17:52:18.312Z,63.53
2018-04-24T17:54:46.431Z,64.95
2018-04-24T17:57:14.628Z,65.44
2018-04-24T17:59:42.699Z,65.89
2018-04-24T18:02:10.827Z,65.97
2018-04-24T18:04:38.951Z,66.05
2018-04-24T18:07:07.207Z,66.51
2018-04-24T18:09:35.331Z,67.12
2018-04-24T18:12:03.478Z,66.98
2018-04-24T18:14:31.603Z,68.01
2018-04-24T18:16:59.723Z,68.22
2018-04-24T18:19:27.852Z,67.83
2018-04-24T18:21:56.799Z,68.35
2018-04-24T18:24:24.927Z,69.38
2018-04-24T18:26:53.084Z,70.32
2018-04-24T18:29:21.191Z,70.05
2018-04-24T18:31:49.324Z,70.30
2018-04-24T18:34:17.662Z,70.70
2018-04-24T18:36:45.794Z,72.27
2018-04-24T18:39:13.913Z,72.08
2018-04-24T18:41:42.073Z,72.23
2018-04-24T18:44:10.197Z,71.69
2018-04-24T18:46:38.766Z,71.50
2018-04-24T18:49:07.000Z,71.72
2018-04-24T18:51:35.126Z,71.68
2018-04-24T18:54:03.254Z,71.73
2018-04-24T18:56:31.398Z,72.52
2018-04-24T18:58:59.530Z,72.83
2018-04-24T19:01:27.638Z,72.80
2018-04-24T19:03:55.808Z,73.14
2018-04-24T19:06:23.927Z,73.20
2018-04-24T19:08:52.047Z,73.58
2018-04-24T19:11:20.204Z,73.96
2018-04-24T19:13:48.335Z,74.13
2018-04-24T19:16:16.474Z,74.54
2018-04-24T19:18:50.252Z,74.91
2018-04-24T19:21:18.390Z,75.63
2018-04-24T19:23:46.551Z,75.95
2018-04-24T19:26:14.688Z,76.44
2018-04-24T19:28:42.813Z,76.96
2018-04-24T19:31:16.506Z,77.32
2018-04-24T19:33:45.162Z,77.65
2018-04-24T19:36:13.309Z,78.06
2018-04-24T19:38:46.955Z,78.26
2018-04-24T19:41:20.747Z,78.75
2018-04-24T19:43:48.867Z,79.01
2018-04-24T19:46:17.011Z,79.42
2018-04-24T19:48:50.688Z,79.51
2018-04-24T19:51:18.828Z,79.81
2018-04-24T19:53:46.968Z,79.98
2018-04-24T19:56:15.113Z,80.25
2018-04-24T19:58:43.309Z,80.53
2018-04-24T20:01:11.363Z,80.78
2018-04-24T20:03:39.496Z,80.94
2018-04-24T20:06:07.629Z,80.80
2018-04-24T20:08:35.771Z,81.02
2018-04-24T20:11:03.902Z,81.11
2018-04-24T20:13:32.074Z,81.32
2018-04-24T20:16:00.212Z,81.28
2018-04-24T20:18:28.343Z,81.57
2018-04-24T20:20:56.480Z,81.83
2018-04-24T20:23:24.621Z,81.71
2018-04-24T20:25:52.862Z,81.62
2018-04-24T20:28:21.000Z,81.63
2018-04-24T20:30:49.127Z,81.64
2018-04-24T20:33:17.260Z,81.91
2018-04-24T20:35:45.378Z,82.48
2018-04-24T20:38:13.510Z,83.08
2018-04-24T20:40:41.660Z,83.55
2018-04-24T20:43:09.992Z,84.03
2018-04-24T20:45:38.121Z,84.04
2018-04-24T20:48:06.250Z,84.85
2018-04-24T20:50:34.386Z,84.94
2018-04-24T20:53:02.528Z,84.71
2018-04-24T20:55:30.658Z,86.01
2018-04-24T20:57:58.773Z,85.88
2018-04-24T21:00:26.900Z,86.25
2018-04-24T21:02:55.028Z,86.56
2018-04-24T21:05:23.158Z,86.97
2018-04-24T21:07:51.299Z,87.25
2018-04-24T21:10:19.427Z,87.60
2018-04-24T21:12:47.624Z,88.26
2018-04-24T21:15:15.790Z,88.32
2018-04-24T21:17:43.939Z,88.46
2018-04-24T21:20:12.071Z,89.85
2018-04-24T21:22:40.194Z,90.67
2018-04-24T21:25:08.332Z,90.37
2018-04-24T21:27:36.468Z,89.80
2018-04-24T21:30:04.604Z,89.30
2018-04-24T21:32:32.782Z,89.18
2018-04-24T21:35:00.918Z,89.06
2018-04-24T21:37:29.041Z,88.84
2018-04-24T21:39:57.180Z,88.60
2018-04-24T21:42:25.309Z,88.39
2018-04-24T21:44:53.438Z,88.88
2018-04-24T21:47:21.614Z,88.97
2018-04-24T21:49:49.740Z,88.76
2018-04-24T21:52:17.866Z,89.27
2018-04-24T21:54:45.999Z,90.16
2018-04-24T21:57:14.126Z,90.00
2018-04-24T21:59:42.257Z,89.73
2018-04-24T22:02:10.412Z,89.70
2018-04-24T22:04:42.402Z,89.78
2018-04-24T22:07:10.578Z,89.64
2018-04-24T22:09:38.706Z,89.78
2018-04-24T22:12:06.845Z,89.88
2018-04-24T22:14:34.975Z,89.75
2018-04-24T22:17:03.110Z,90.05
2018-04-24T22:19:31.255Z,90.43
2018-04-24T22:21:59.387Z,90.26
2018-04-24T22:24:27.536Z,90.39
2018-04-24T22:26:55.768Z,90.81
2018-04-24T22:29:23.910Z,90.83
2018-04-24T22:31:52.052Z,90.91
2018-04-24T22:34:20.190Z,91.05
2018-04-24T22:36:48.327Z,91.04
2018-04-24T22:39:16.455Z,90.92
2018-04-24T22:41:44.580Z,90.87
2018-04-24T22:44:16.179Z,90.94
2018-04-24T22:46:44.314Z,91.09
2018-04-24T22:49:12.445Z,91.09
2018-04-24T22:51:40.583Z,91.21
2018-04-24T22:54:08.723Z,91.45
2018-04-24T22:56:36.859Z,92.08
2018-04-24T22:59:04.993Z,92.53
2018-04-24T23:01:33.117Z,92.75
2018-04-24T23:04:01.411Z,92.58
2018-04-24T23:06:29.538Z,92.63
2018-04-24T23:08:57.668Z,92.49
2018-04-24T23:11:37.856Z,92.50
2018-04-24T23:14:17.752Z,92.58
2018-04-24T23:16:57.785Z,92.57
2018-04-24T23:19:37.775Z,92.60
2018-04-24T23:22:05.376Z,92.74
2018-04-24T23:24:33.521Z,92.67
2018-04-24T23:27:01.641Z,92.59
2018-04-24T23:29:29.817Z,92.48
2018-04-24T23:31:57.933Z,92.36
2018-04-24T23:34:26.209Z,92.70
2018-04-24T23:36:54.334Z,93.24
2018-04-24T23:39:22.470Z,93.55
2018-04-24T23:41:50.616Z,93.83
2018-04-24T23:44:18.741Z,93.86
2018-04-24T23:46:46.871Z,93.94
2018-04-24T23:49:15.016Z,93.99
2018-04-24T23:51:43.147Z,93.87
2018-04-24T23:54:11.277Z,93.90
2018-04-24T23:56:39.409Z,93.69
2018-04-24T23:59:07.543Z,93.66
